Time;durP1;ratioP1;P1;durP2;ratioP2;P2;SDS_P1;SDS_P2;PMS_P1;PMS_P2;Temp;Humidity;BMP_temperature;BMP_pressure;BME280_temperature;BME280_humidity;BME280_pressure;Samples;Min_cycle;Max_cycle;Signal;HPM_P1;HPM_P2
2022/09/19 00:01:56;;;;;;;0.40;0.40;;;8.60;99.90;;;;;;5116792;28;20440;-67
2022/09/19 00:04:44;;;;;;;0.40;0.40;;;8.70;99.90;;;;;;5115272;28;20414;-66
2022/09/19 00:07:32;;;;;;;0.70;0.70;;;8.70;99.90;;;;;;5115827;28;20462;-67
2022/09/19 00:10:22;;;;;;;0.50;0.50;;;8.70;99.90;;;;;;5115947;28;20445;-67
2022/09/19 00:13:12;;;;;;;0.50;0.50;;;8.70;99.90;;;;;;5116368;28;21097;-67
2022/09/19 00:16:00;;;;;;;0.40;0.40;;;8.80;99.90;;;;;;5115859;28;20455;-67
2022/09/19 00:18:49;;;;;;;0.40;0.40;;;8.80;99.90;;;;;;5116037;28;20421;-67
2022/09/19 00:21:39;;;;;;;0.40;0.40;;;8.90;99.90;;;;;;5116068;28;20449;-67
2022/09/19 00:24:45;;;;;;;0.30;0.30;;;8.90;99.90;;;;;;5115296;28;20425;-67
2022/09/19 00:27:33;;;;;;;0.40;0.40;;;8.90;99.90;;;;;;5115983;28;20540;-67
2022/09/19 00:30:23;;;;;;;0.40;0.40;;;8.90;99.90;;;;;;5114862;28;20418;-67
2022/09/19 00:33:12;;;;;;;0.40;0.40;;;8.90;99.90;;;;;;5114868;28;20426;-67
2022/09/19 00:36:03;;;;;;;0.47;0.47;;;8.90;99.90;;;;;;5116723;28;20418;-67
2022/09/19 00:38:51;;;;;;;0.40;0.40;;;8.90;99.90;;;;;;5116019;28;21018;-66
2022/09/19 00:41:40;;;;;;;0.40;0.40;;;8.90;99.90;;;;;;5115309;28;20524;-67
2022/09/19 00:44:52;;;;;;;0.40;0.40;;;8.90;99.90;;;;;;5115191;28;20429;-67
2022/09/19 00:47:46;;;;;;;0.40;0.40;;;8.90;99.90;;;;;;5114994;28;20550;-67
2022/09/19 00:50:35;;;;;;;0.40;0.40;;;9.00;99.90;;;;;;5115085;28;20520;-67
2022/09/19 00:53:25;;;;;;;0.40;0.40;;;9.00;99.90;;;;;;5116565;28;20453;-67
2022/09/19 00:56:14;;;;;;;0.50;0.50;;;9.00;99.90;;;;;;5114840;28;20957;-66
2022/09/19 00:59:03;;;;;;;0.40;0.40;;;9.00;99.90;;;;;;5099840;28;20567;-67
2022/09/19 01:01:55;;;;;;;0.40;0.40;;;9.00;99.90;;;;;;5098049;28;20422;-67
2022/09/19 01:04:44;;;;;;;0.40;0.40;;;9.00;99.90;;;;;;5097165;28;20517;-66
2022/09/19 01:08:01;;;;;;;0.60;0.60;;;9.00;99.90;;;;;;5127391;28;20497;-66
2022/09/19 01:11:11;;;;;;;0.50;0.50;;;9.00;99.90;;;;;;5132660;28;20457;-66
2022/09/19 01:14:09;;;;;;;0.40;0.40;;;8.90;99.90;;;;;;5136507;28;20488;-66
2022/09/19 01:17:04;;;;;;;0.40;0.40;;;9.30;99.90;;;;;;5134681;28;20467;-67
2022/09/19 01:20:14;;;;;;;0.40;0.40;;;8.90;99.90;;;;;;5136979;28;20443;-67
2022/09/19 01:23:24;;;;;;;0.37;0.37;;;8.90;99.90;;;;;;5106592;28;20429;-66
2022/09/19 01:26:32;;;;;;;0.40;0.40;;;8.90;99.90;;;;;;5136016;28;20472;-66
2022/09/19 01:29:26;;;;;;;0.40;0.40;;;9.00;99.90;;;;;;5135848;28;20440;-66
2022/09/19 01:32:18;;;;;;;0.97;0.70;;;8.90;99.90;;;;;;5136207;28;20433;-66
2022/09/19 01:35:11;;;;;;;0.60;0.60;;;8.90;99.90;;;;;;5134418;28;20453;-66
2022/09/19 01:38:05;;;;;;;0.40;0.40;;;9.00;99.90;;;;;;5136740;28;20469;-66
2022/09/19 01:40:54;;;;;;;0.40;0.40;;;9.00;99.90;;;;;;5133229;28;20441;-67
2022/09/19 01:43:42;;;;;;;0.40;0.40;;;9.00;99.90;;;;;;5136322;28;20433;-66
2022/09/19 01:46:44;;;;;;;0.40;0.40;;;9.00;99.90;;;;;;5133783;28;20461;-67
2022/09/19 01:49:43;;;;;;;0.60;0.60;;;9.20;99.90;;;;;;5132193;28;20479;-67
2022/09/19 01:52:49;;;;;;;0.40;0.40;;;9.10;99.90;;;;;;5127461;28;20452;-67
2022/09/19 01:55:47;;;;;;;0.70;0.50;;;9.10;99.90;;;;;;5129226;28;20425;-67
2022/09/19 01:58:46;;;;;;;0.40;0.40;;;9.10;99.90;;;;;;5109426;28;20493;-66
2022/09/19 02:01:40;;;;;;;0.40;0.40;;;9.10;99.90;;;;;;5107616;28;20989;-67
2022/09/19 02:04:34;;;;;;;0.40;0.40;;;9.10;99.90;;;;;;5108062;28;20950;-67
2022/09/19 02:07:29;;;;;;;0.40;0.40;;;9.10;99.90;;;;;;5114464;28;20604;-66
2022/09/19 02:10:21;;;;;;;0.47;0.47;;;9.10;99.90;;;;;;5112754;28;20490;-66
2022/09/19 02:13:11;;;;;;;0.50;0.50;;;9.10;99.90;;;;;;5112497;28;20423;-67
2022/09/19 02:16:06;;;;;;;0.80;0.60;;;9.20;99.90;;;;;;5112412;28;20461;-67
2022/09/19 02:18:59;;;;;;;0.77;0.77;;;9.20;99.90;;;;;;5114260;28;20437;-66
2022/09/19 02:21:53;;;;;;;0.50;0.50;;;9.20;99.90;;;;;;5109260;28;20509;-67
2022/09/19 02:24:45;;;;;;;0.40;0.40;;;9.20;99.90;;;;;;5106024;28;20445;-67
2022/09/19 02:27:39;;;;;;;0.40;0.40;;;9.20;99.90;;;;;;5097577;28;20472;-67
2022/09/19 02:30:28;;;;;;;0.70;0.67;;;9.20;99.90;;;;;;5095243;28;20505;-67
2022/09/19 02:33:18;;;;;;;0.50;0.50;;;9.20;99.90;;;;;;5096556;28;20479;-67
2022/09/19 02:36:14;;;;;;;0.50;0.50;;;9.30;99.90;;;;;;5096055;28;20471;-66
2022/09/19 02:39:06;;;;;;;0.40;0.40;;;9.20;99.90;;;;;;5095670;28;20484;-67
2022/09/19 02:42:03;;;;;;;0.70;0.70;;;9.40;99.90;;;;;;5093858;28;20930;-66
2022/09/19 02:45:03;;;;;;;0.40;0.40;;;9.30;99.90;;;;;;5095848;28;20429;-67
2022/09/19 02:47:57;;;;;;;0.97;0.97;;;9.30;99.90;;;;;;5094139;28;20515;-67
2022/09/19 02:50:59;;;;;;;0.40;0.40;;;9.30;99.90;;;;;;5093424;28;20561;-66
2022/09/19 02:53:55;;;;;;;0.40;0.40;;;9.30;99.90;;;;;;5096239;28;20432;-67
2022/09/19 02:56:45;;;;;;;0.40;0.40;;;10.70;99.90;;;;;;5102115;28;20473;-67
2022/09/19 02:59:37;;;;;;;0.60;0.60;;;9.30;99.90;;;;;;5114296;28;20558;-67
2022/09/19 03:02:27;;;;;;;0.67;0.60;;;9.40;99.90;;;;;;5114785;28;21063;-66
2022/09/19 03:05:20;;;;;;;0.40;0.40;;;9.40;99.90;;;;;;5117951;28;20416;-67
2022/09/19 03:08:15;;;;;;;0.40;0.40;;;9.40;99.90;;;;;;5123959;28;20461;-67
2022/09/19 03:11:14;;;;;;;0.63;0.63;;;9.50;99.90;;;;;;5095499;28;20951;-70
2022/09/19 03:14:03;;;;;;;3.27;1.97;;;9.50;99.90;;;;;;5108903;28;20446;-66
2022/09/19 03:16:56;;;;;;;1.00;1.00;;;9.50;99.90;;;;;;5115812;28;20488;-66
2022/09/19 03:19:46;;;;;;;0.60;0.60;;;9.50;99.90;;;;;;5122069;28;20429;-66
2022/09/19 03:22:34;;;;;;;0.40;0.40;;;9.60;99.90;;;;;;5122124;28;20414;-66
2022/09/19 03:25:25;;;;;;;0.93;0.93;;;9.50;99.90;;;;;;5121349;28;20439;-67
2022/09/19 03:28:19;;;;;;;0.53;0.40;;;9.60;99.90;;;;;;5120013;28;20479;-67
2022/09/19 03:31:08;;;;;;;0.40;0.40;;;9.60;99.90;;;;;;5127600;28;20405;-67
2022/09/19 03:33:56;;;;;;;0.40;0.40;;;9.60;99.90;;;;;;5126004;28;20952;-67
2022/09/19 03:36:44;;;;;;;0.70;0.70;;;9.60;99.90;;;;;;5120900;28;20498;-67
2022/09/19 03:39:32;;;;;;;1.00;0.90;;;9.60;99.90;;;;;;5119347;28;20424;-66
2022/09/19 03:42:20;;;;;;;0.50;0.50;;;9.60;99.90;;;;;;5119029;28;20516;-66
2022/09/19 03:45:10;;;;;;;0.40;0.40;;;9.60;99.90;;;;;;5117965;28;20418;-67
2022/09/19 03:47:58;;;;;;;0.40;0.40;;;9.60;99.90;;;;;;5119366;28;20472;-67
2022/09/19 03:50:47;;;;;;;0.60;0.60;;;9.60;99.90;;;;;;5119460;28;20470;-67
2022/09/19 03:53:35;;;;;;;0.40;0.40;;;9.60;99.90;;;;;;5118571;28;20517;-66
2022/09/19 03:56:23;;;;;;;0.40;0.40;;;9.70;99.90;;;;;;5118752;28;20919;-66
2022/09/19 03:59:11;;;;;;;0.47;0.47;;;9.70;99.90;;;;;;5117259;28;20421;-66
2022/09/19 04:02:00;;;;;;;0.93;0.93;;;9.70;99.90;;;;;;5118188;28;20440;-67
2022/09/19 04:04:48;;;;;;;0.40;0.40;;;9.60;99.90;;;;;;5118877;28;20429;-67
2022/09/19 04:07:38;;;;;;;0.80;0.77;;;9.60;99.90;;;;;;5117946;28;20461;-66
2022/09/19 04:10:27;;;;;;;1.23;0.97;;;9.50;99.90;;;;;;5117445;28;20449;-66
2022/09/19 04:13:16;;;;;;;0.40;0.40;;;9.60;99.90;;;;;;5117357;28;20485;-67
2022/09/19 04:16:05;;;;;;;0.50;0.50;;;9.60;99.90;;;;;;5118182;28;20508;-67
2022/09/19 04:18:55;;;;;;;0.70;0.70;;;9.50;99.90;;;;;;5117497;28;20945;-67
2022/09/19 04:21:44;;;;;;;0.70;0.70;;;9.50;99.90;;;;;;5117398;28;20828;-67
2022/09/19 04:24:32;;;;;;;1.03;1.00;;;9.50;99.90;;;;;;5116781;28;20540;-67
2022/09/19 04:27:20;;;;;;;0.40;0.40;;;9.50;99.90;;;;;;5117265;28;20453;-67
2022/09/19 04:30:10;;;;;;;0.80;0.80;;;9.50;99.90;;;;;;5117437;28;20429;-67
2022/09/19 04:33:03;;;;;;;1.80;0.97;;;9.40;99.90;;;;;;5118110;28;20449;-66
2022/09/19 04:35:52;;;;;;;0.40;0.40;;;9.40;99.90;;;;;;5118002;28;20481;-67
2022/09/19 04:38:40;;;;;;;1.63;1.33;;;9.40;99.90;;;;;;5117174;28;20961;-68
2022/09/19 04:41:29;;;;;;;0.50;0.50;;;9.40;99.90;;;;;;5116544;28;20572;-68
2022/09/19 04:44:17;;;;;;;0.40;0.40;;;8.80;99.90;;;;;;5117958;28;20804;-67
2022/09/19 04:47:06;;;;;;;0.60;0.60;;;9.60;99.90;;;;;;5118143;28;20526;-68
2022/09/19 04:49:56;;;;;;;6.77;0.77;;;9.40;99.90;;;;;;5117742;28;20422;-68
2022/09/19 04:52:48;;;;;;;0.40;0.40;;;9.40;99.90;;;;;;5118063;28;20425;-68
2022/09/19 04:55:36;;;;;;;0.50;0.50;;;9.40;99.90;;;;;;5116417;28;20431;-68
2022/09/19 04:58:24;;;;;;;0.40;0.40;;;9.40;99.90;;;;;;5095786;28;20437;-68
2022/09/19 05:01:13;;;;;;;0.40;0.40;;;9.50;99.90;;;;;;5095570;28;20430;-68
2022/09/19 05:04:02;;;;;;;0.70;0.70;;;9.50;99.90;;;;;;5095775;28;20415;-68
2022/09/19 05:06:51;;;;;;;0.40;0.40;;;9.50;99.90;;;;;;5095653;28;20444;-68
2022/09/19 05:09:41;;;;;;;1.70;1.37;;;9.50;99.90;;;;;;5095495;28;20521;-68
2022/09/19 05:12:30;;;;;;;1.23;1.13;;;9.50;99.90;;;;;;5096450;28;20505;-68
2022/09/19 05:15:18;;;;;;;0.40;0.40;;;9.60;99.90;;;;;;5094234;28;20510;-68
2022/09/19 05:18:12;;;;;;;0.77;0.70;;;9.60;99.90;;;;;;5096210;28;20434;-68
2022/09/19 05:21:05;;;;;;;0.50;0.50;;;9.60;99.90;;;;;;5097444;28;20450;-68
2022/09/19 05:23:54;;;;;;;0.50;0.50;;;9.60;99.90;;;;;;5096052;28;20513;-68
2022/09/19 05:26:43;;;;;;;1.03;0.60;;;9.70;99.90;;;;;;5118720;22;20454;-68
2022/09/19 05:29:36;;;;;;;0.40;0.40;;;9.70;99.90;;;;;;5054188;28;20800;-67
2022/09/19 05:32:24;;;;;;;0.50;0.50;;;9.70;99.90;;;;;;5053445;28;20416;-68
2022/09/19 05:35:12;;;;;;;0.40;0.40;;;9.80;99.90;;;;;;5053558;28;20790;-68
2022/09/19 05:38:00;;;;;;;0.40;0.40;;;9.80;99.90;;;;;;5042366;28;20481;-67
2022/09/19 05:40:51;;;;;;;0.60;0.60;;;9.80;99.90;;;;;;5025610;28;20915;-68
2022/09/19 05:43:40;;;;;;;6.57;0.70;;;9.80;99.90;;;;;;5015444;28;20979;-67
2022/09/19 05:46:29;;;;;;;0.40;0.40;;;9.90;99.90;;;;;;5015205;28;20454;-68
2022/09/19 05:49:18;;;;;;;0.57;0.57;;;9.90;99.90;;;;;;5014475;28;20492;-68
2022/09/19 05:55:09;;;;;;;0.77;0.60;;;10.10;99.90;;;;;;5026279;28;20433;-67
2022/09/19 05:57:59;;;;;;;0.40;0.40;;;10.10;99.90;;;;;;5031700;28;20980;-68
2022/09/19 06:00:49;;;;;;;0.50;0.50;;;10.20;99.90;;;;;;5031065;28;20488;-67
2022/09/19 06:03:38;;;;;;;0.50;0.50;;;10.20;99.90;;;;;;5033289;28;20786;-67
2022/09/19 06:06:27;;;;;;;0.80;0.80;;;10.30;99.90;;;;;;5033731;28;20433;-66
2022/09/19 06:09:15;;;;;;;0.50;0.50;;;10.30;99.90;;;;;;5031652;28;20469;-67
2022/09/19 06:12:04;;;;;;;0.50;0.50;;;10.30;99.90;;;;;;5033422;28;20666;-68
2022/09/19 06:14:52;;;;;;;0.50;0.50;;;10.30;99.90;;;;;;5033066;28;20825;-67
2022/09/19 06:17:41;;;;;;;0.40;0.40;;;10.50;99.90;;;;;;5034395;28;20901;-67
2022/09/19 06:20:30;;;;;;;1.30;0.97;;;10.40;99.90;;;;;;5034107;28;20959;-67
2022/09/19 06:23:18;;;;;;;0.40;0.40;;;10.50;99.90;;;;;;5034347;28;20575;-68
2022/09/19 06:26:06;;;;;;;0.90;0.80;;;10.50;99.90;;;;;;5031709;28;20453;-67
2022/09/19 06:28:54;;;;;;;0.40;0.40;;;10.60;99.90;;;;;;5015560;28;20631;-67
2022/09/19 06:31:43;;;;;;;0.90;0.60;;;10.40;99.90;;;;;;5028428;28;20509;-66
2022/09/19 06:34:32;;;;;;;0.70;0.70;;;10.50;99.90;;;;;;5026474;28;20824;-67
2022/09/19 06:37:40;;;;;;;0.40;0.40;;;10.60;99.90;;;;;;5031032;28;20826;-67
2022/09/19 06:40:30;;;;;;;1.17;1.17;;;10.70;99.90;;;;;;5014689;28;20442;-67
2022/09/19 06:43:18;;;;;;;0.77;0.53;;;10.80;99.90;;;;;;5014435;28;20423;-68
2022/09/19 06:46:06;;;;;;;0.40;0.40;;;11.00;99.90;;;;;;5014398;28;20520;-68
2022/09/19 06:48:55;;;;;;;1.20;0.80;;;10.90;99.90;;;;;;5020957;28;20461;-67
2022/09/19 06:51:44;;;;;;;0.60;0.60;;;11.00;99.90;;;;;;5034385;28;20869;-67
2022/09/19 06:54:32;;;;;;;0.50;0.50;;;11.00;99.90;;;;;;5037552;28;20512;-68
2022/09/19 06:57:21;;;;;;;0.80;0.60;;;11.20;99.90;;;;;;5036857;28;20468;-67
2022/09/19 07:00:11;;;;;;;0.40;0.40;;;11.10;99.90;;;;;;5033584;28;20525;-67
2022/09/19 07:03:01;;;;;;;0.50;0.50;;;11.20;99.90;;;;;;5030387;28;20429;-67
2022/09/19 07:05:51;;;;;;;0.67;0.67;;;11.20;99.90;;;;;;5033395;28;20495;-66
2022/09/19 07:08:41;;;;;;;0.53;0.50;;;11.20;99.90;;;;;;5032444;28;20468;-67
2022/09/19 07:11:29;;;;;;;0.40;0.40;;;11.20;99.90;;;;;;5029984;28;20448;-68
2022/09/19 07:14:17;;;;;;;4.93;2.17;;;11.30;99.90;;;;;;5032744;28;20429;-66
2022/09/19 07:17:05;;;;;;;0.77;0.77;;;11.30;99.90;;;;;;5033653;28;20490;-67
2022/09/19 07:19:54;;;;;;;0.53;0.50;;;11.40;99.90;;;;;;5018462;28;20421;-68
2022/09/19 07:22:42;;;;;;;2.20;1.10;;;11.30;99.90;;;;;;5028971;28;20523;-67
2022/09/19 07:25:37;;;;;;;0.50;0.50;;;11.40;99.90;;;;;;5035518;28;20507;-67
2022/09/19 07:28:26;;;;;;;0.70;0.50;;;11.50;99.90;;;;;;5036340;28;20460;-67
2022/09/19 07:31:14;;;;;;;0.50;0.50;;;11.50;99.90;;;;;;5033468;28;20854;-68
2022/09/19 07:34:02;;;;;;;0.80;0.70;;;11.50;99.90;;;;;;5034001;28;20616;-68
2022/09/19 07:36:53;;;;;;;0.63;0.63;;;11.70;99.90;;;;;;5031520;28;21018;-67
2022/09/19 07:39:41;;;;;;;1.07;0.97;;;11.70;99.90;;;;;;5032274;28;20508;-67
2022/09/19 07:42:50;;;;;;;1.03;0.93;;;11.70;99.90;;;;;;5037751;28;20428;-66
2022/09/19 07:45:39;;;;;;;1.17;0.80;;;11.70;99.90;;;;;;5036666;28;20502;-66
2022/09/19 07:48:27;;;;;;;0.50;0.50;;;11.70;99.90;;;;;;5034964;28;20445;-66
2022/09/19 07:50:58;;;;;;;0.50;0.50;;;11.80;99.90;;;;;;5036139;28;20503;-66
2022/09/19 07:53:27;;;;;;;1.00;0.90;;;11.80;99.90;;;;;;5035722;28;20437;-66
2022/09/19 07:55:56;;;;;;;1.43;1.37;;;11.90;99.90;;;;;;5033773;28;20452;-66
2022/09/19 07:58:27;;;;;;;0.40;0.40;;;12.10;99.90;;;;;;5022457;28;20507;-67
2022/09/19 08:00:58;;;;;;;0.87;0.87;;;12.10;99.90;;;;;;5015295;28;20434;-67
2022/09/19 08:03:26;;;;;;;1.37;0.97;;;12.30;99.90;;;;;;5016583;28;20429;-66
2022/09/19 08:05:55;;;;;;;0.40;0.40;;;12.30;99.90;;;;;;5027097;28;20429;-67
2022/09/19 08:08:24;;;;;;;0.50;0.50;;;12.40;99.90;;;;;;5032537;28;20471;-66
2022/09/19 08:10:54;;;;;;;0.60;0.60;;;12.50;99.90;;;;;;5029070;28;20476;-67
2022/09/19 08:13:22;;;;;;;1.20;0.80;;;12.60;99.90;;;;;;5026356;28;20453;-66
2022/09/19 08:15:51;;;;;;;0.50;0.50;;;12.70;99.90;;;;;;5017093;28;20489;-66
2022/09/19 08:18:21;;;;;;;1.50;0.70;;;12.60;99.90;;;;;;5015188;28;20565;-67
2022/09/19 08:20:49;;;;;;;1.10;1.10;;;12.70;99.90;;;;;;5015616;28;20434;-67
2022/09/19 08:23:19;;;;;;;1.50;0.80;;;12.60;99.90;;;;;;5022190;28;20454;-67
2022/09/19 08:25:51;;;;;;;0.50;0.50;;;12.60;99.90;;;;;;5016970;28;20434;-66
2022/09/19 08:28:21;;;;;;;1.37;1.37;;;12.80;99.90;;;;;;5015898;28;20516;-67
2022/09/19 08:30:50;;;;;;;0.80;0.80;;;12.80;99.90;;;;;;5013884;28;20485;-67
2022/09/19 08:33:19;;;;;;;2.30;2.20;;;;;;;;;;5015786;28;20426;-67
2022/09/19 08:35:47;;;;;;;0.40;0.40;;;12.90;99.90;;;;;;5014311;28;20544;-66
2022/09/19 08:38:15;;;;;;;0.80;0.50;;;12.90;99.90;;;;;;5016673;28;20454;-66
2022/09/19 08:41:02;;;;;;;0.57;0.57;;;13.20;99.90;;;;;;5016572;28;20504;-67
2022/09/19 08:43:39;;;;;;;0.50;0.50;;;13.30;99.90;;;;;;5017605;28;20433;-65
2022/09/19 08:46:13;;;;;;;0.50;0.50;;;13.50;99.90;;;;;;5014616;28;20473;-66
2022/09/19 08:48:50;;;;;;;0.60;0.60;;;13.50;99.90;;;;;;5016117;28;20469;-66
2022/09/19 08:51:24;;;;;;;0.50;0.50;;;13.50;99.90;;;;;;5014993;28;20473;-66
2022/09/19 08:53:56;;;;;;;0.40;0.40;;;13.50;99.90;;;;;;5015864;28;20434;-66
2022/09/19 08:56:25;;;;;;;0.40;0.40;;;13.50;99.90;;;;;;5015464;28;20465;-67
2022/09/19 08:58:57;;;;;;;0.60;0.50;;;13.50;99.90;;;;;;5016362;28;20445;-66
2022/09/19 09:01:29;;;;;;;1.03;0.43;;;13.50;99.90;;;;;;5014406;28;20477;-65
2022/09/19 09:04:07;;;;;;;0.40;0.40;;;13.50;99.90;;;;;;5023442;28;20430;-67
2022/09/19 09:06:42;;;;;;;0.50;0.50;;;13.50;99.90;;;;;;5015609;28;20521;-66
2022/09/19 09:09:18;;;;;;;0.50;0.50;;;13.60;99.90;;;;;;5015655;28;20442;-66
2022/09/19 09:11:57;;;;;;;0.40;0.40;;;13.80;99.90;;;;;;5015207;28;20520;-68
2022/09/19 09:14:30;;;;;;;0.57;0.57;;;14.00;99.90;;;;;;5016139;28;20524;-66
2022/09/19 09:17:14;;;;;;;0.50;0.50;;;14.10;99.90;;;;;;5016738;28;20549;-66
2022/09/19 09:19:59;;;;;;;0.50;0.50;;;14.40;99.90;;;;;;5012192;28;20458;-66
2022/09/19 09:22:32;;;;;;;0.40;0.40;;;14.50;99.90;;;;;;5015562;28;20421;-67
2022/09/19 09:25:08;;;;;;;0.50;0.50;;;14.80;99.90;;;;;;5014355;28;20462;-67
2022/09/19 09:27:42;;;;;;;0.60;0.60;;;14.90;99.90;;;;;;5011221;28;20492;-67
2022/09/19 09:30:16;;;;;;;0.50;0.50;;;14.90;99.90;;;;;;5002808;28;20582;-65
2022/09/19 09:32:49;;;;;;;0.50;0.50;;;14.80;99.90;;;;;;5000432;28;20488;-66
2022/09/19 09:35:31;;;;;;;0.40;0.40;;;14.80;99.90;;;;;;5015540;28;20434;-67
2022/09/19 09:38:04;;;;;;;0.40;0.40;;;15.00;99.90;;;;;;5015684;28;20446;-67
2022/09/19 09:43:38;;;;;;;0.50;0.50;;;15.10;99.90;;;;;;5015106;28;20438;-66
2022/09/19 09:46:11;;;;;;;0.50;0.50;;;15.20;99.90;;;;;;5015693;28;20492;-66
2022/09/19 09:48:41;;;;;;;0.40;0.40;;;15.30;99.90;;;;;;5013866;28;20468;-68
2022/09/19 09:51:22;;;;;;;0.53;0.53;;;15.50;99.90;;;;;;5012410;28;20536;-70
2022/09/19 09:56:14;;;;;;;0.40;0.40;;;15.70;99.90;;;;;;5008528;28;20426;-67
2022/09/19 09:57:08;;;;;;;0.40;0.40;;;15.60;99.90;;;;;;5001053;28;20580;-67
2022/09/19 10:05:33;;;;;;;0.40;0.40;;;15.90;99.90;;;;;;5012383;28;20557;-68
2022/09/19 10:08:14;;;;;;;0.50;0.50;;;16.10;99.90;;;;;;5011870;28;20449;-68
2022/09/19 10:10:43;;;;;;;0.40;0.40;;;16.20;99.90;;;;;;4992818;28;20466;-67
2022/09/19 10:13:21;;;;;;;0.87;0.60;;;16.00;99.90;;;;;;4993336;28;20207;-68
2022/09/19 10:15:54;;;;;;;0.87;0.73;;;16.00;99.90;;;;;;4992647;28;20482;-68
2022/09/19 10:18:27;;;;;;;0.40;0.40;;;16.00;99.90;;;;;;4993283;28;20465;-69
2022/09/19 10:20:57;;;;;;;0.40;0.40;;;16.00;99.90;;;;;;4992670;28;20430;-68
2022/09/19 10:23:26;;;;;;;0.40;0.40;;;15.90;99.90;;;;;;5001736;28;20521;-68
2022/09/19 10:26:00;;;;;;;0.40;0.40;;;15.70;99.90;;;;;;5012840;28;20437;-68
2022/09/19 10:28:33;;;;;;;0.40;0.40;;;15.60;99.90;;;;;;5027206;28;20488;-69
2022/09/19 10:31:04;;;;;;;0.50;0.50;;;15.50;99.90;;;;;;5033040;28;20530;-68
2022/09/19 10:33:40;;;;;;;0.40;0.40;;;15.30;99.90;;;;;;5032228;28;20437;-67
2022/09/19 10:36:20;;;;;;;0.40;0.40;;;15.20;99.90;;;;;;5032655;28;20441;-67
2022/09/19 10:38:54;;;;;;;0.87;0.83;;;15.00;99.90;;;;;;5039958;28;20460;-67
2022/09/19 10:41:25;;;;;;;0.57;0.57;;;15.00;99.90;;;;;;5032674;28;20437;-67
2022/09/19 10:43:56;;;;;;;0.90;0.90;;;15.10;99.90;;;;;;5029268;28;20548;-67
2022/09/19 10:46:36;;;;;;;0.50;0.50;;;15.30;99.90;;;;;;5034631;28;20425;-67
2022/09/19 10:49:07;;;;;;;0.50;0.50;;;15.30;99.90;;;;;;5033450;28;20524;-67
2022/09/19 10:51:43;;;;;;;0.40;0.40;;;15.50;99.90;;;;;;5033536;28;20468;-67
2022/09/19 10:54:21;;;;;;;0.40;0.40;;;15.50;99.90;;;;;;5032361;28;20440;-70
2022/09/19 10:56:49;;;;;;;0.60;0.60;;;16.20;99.90;;;;;;5035895;28;20436;-69
2022/09/19 10:59:27;;;;;;;0.50;0.50;;;16.20;99.90;;;;;;5034701;28;20433;-68
2022/09/19 11:02:19;;;;;;;0.70;0.70;;;16.50;99.90;;;;;;5032881;28;20429;-71
2022/09/19 11:04:59;;;;;;;0.40;0.40;;;16.70;99.90;;;;;;5032158;28;20455;-69
2022/09/19 11:07:31;;;;;;;1.10;0.70;;;16.60;99.90;;;;;;5035774;28;20485;-67
2022/09/19 11:10:01;;;;;;;1.57;0.50;;;16.50;99.90;;;;;;5035438;28;20476;-67
2022/09/19 11:12:30;;;;;;;0.97;0.50;;;16.30;99.90;;;;;;5035966;28;20491;-69
2022/09/19 11:14:59;;;;;;;0.40;0.40;;;16.20;99.90;;;;;;5028981;28;20434;-70
2022/09/19 11:17:51;;;;;;;0.60;0.47;;;16.20;99.90;;;;;;5024061;28;20312;-68
2022/09/19 11:20:31;;;;;;;0.40;0.40;;;16.30;99.90;;;;;;5030933;28;20461;-68
2022/09/19 11:23:15;;;;;;;0.50;0.50;;;16.20;99.90;;;;;;5023180;28;20507;-68
2022/09/19 11:25:50;;;;;;;1.10;1.00;;;16.10;99.90;;;;;;5015722;28;20437;-69
2022/09/19 11:28:28;;;;;;;0.50;0.50;;;16.20;99.90;;;;;;5045797;23;20775;-68
2022/09/19 11:31:28;;;;;;;0.50;0.50;;;16.20;99.90;;;;;;5046880;28;20532;-67
2022/09/19 11:34:23;;;;;;;0.40;0.40;;;16.10;99.90;;;;;;5037424;28;20245;-68
2022/09/19 11:37:27;;;;;;;0.50;0.50;;;16.10;99.90;;;;;;5037249;28;20436;-68
2022/09/19 11:40:10;;;;;;;0.70;0.70;;;16.30;99.90;;;;;;5041030;28;20463;-68
2022/09/19 11:42:48;;;;;;;0.40;0.40;;;16.50;99.90;;;;;;5057231;28;20478;-68
2022/09/19 11:45:18;;;;;;;0.50;0.50;;;16.50;99.90;;;;;;5057201;28;20451;-68
2022/09/19 11:48:08;;;;;;;0.70;0.70;;;16.40;99.90;;;;;;5057178;28;20487;-68
2022/09/19 11:51:08;;;;;;;0.40;0.40;;;16.40;99.90;;;;;;5056489;28;20202;-68
2022/09/19 11:54:02;;;;;;;0.40;0.40;;;16.60;99.90;;;;;;5002461;28;20283;-68
2022/09/19 11:56:50;;;;;;;0.60;0.50;;;16.70;99.90;;;;;;5044352;28;20514;-67
2022/09/19 11:59:35;;;;;;;0.50;0.50;;;16.70;99.90;;;;;;5052577;28;20489;-68
2022/09/19 12:02:24;;;;;;;0.67;0.67;;;16.60;99.90;;;;;;5056034;28;20471;-68
2022/09/19 12:05:03;;;;;;;0.40;0.40;;;16.60;99.90;;;;;;5055219;28;20212;-68
2022/09/19 12:07:41;;;;;;;0.90;0.40;;;16.60;99.90;;;;;;5052794;28;20467;-68
2022/09/19 12:10:15;;;;;;;0.40;0.40;;;16.60;99.90;;;;;;5059593;28;20510;-68
2022/09/19 12:12:53;;;;;;;0.40;0.40;;;16.90;99.90;;;;;;5059881;28;20224;-68
2022/09/19 12:15:24;;;;;;;0.40;0.40;;;17.00;99.90;;;;;;5054160;28;20444;-68
2022/09/19 12:17:58;;;;;;;0.50;0.50;;;17.30;99.90;;;;;;5056576;28;20201;-69
2022/09/19 12:20:34;;;;;;;0.40;0.40;;;17.30;99.90;;;;;;5066193;28;20201;-68
2022/09/19 12:25:54;;;;;;;0.60;0.50;;;17.70;99.90;;;;;;5062078;28;20201;-68
2022/09/19 12:28:27;;;;;;;0.40;0.40;;;17.90;99.90;;;;;;5061649;28;20234;-68
2022/09/19 12:31:00;;;;;;;0.40;0.40;;;18.00;99.90;;;;;;5059149;28;20205;-68
2022/09/19 12:33:35;;;;;;;0.60;0.60;;;18.20;99.90;;;;;;5062411;28;20305;-68
2022/09/19 12:36:12;;;;;;;0.30;0.30;;;18.00;99.90;;;;;;5058465;28;20197;-68
2022/09/19 12:38:46;;;;;;;0.40;0.40;;;17.30;99.90;;;;;;5056080;28;20213;-68
2022/09/19 12:41:21;;;;;;;0.40;0.40;;;16.90;99.90;;;;;;5057244;28;20677;-68
2022/09/19 12:44:00;;;;;;;0.40;0.40;;;16.20;99.90;;;;;;5057832;28;20665;-68
2022/09/19 12:46:39;;;;;;;0.30;0.30;;;16.00;99.90;;;;;;5053956;28;20204;-68
2022/09/19 12:49:18;;;;;;;0.40;0.40;;;15.80;99.90;;;;;;5053525;28;21083;-68
2022/09/19 12:51:53;;;;;;;0.40;0.40;;;15.80;99.90;;;;;;5055009;28;20712;-68
2022/09/19 12:54:26;;;;;;;0.40;0.40;;;15.80;99.90;;;;;;5051953;28;20224;-68
2022/09/19 12:57:01;;;;;;;0.40;0.40;;;15.80;99.90;;;;;;5054903;28;20564;-68
2022/09/19 12:59:33;;;;;;;0.40;0.40;;;15.60;99.90;;;;;;5054926;28;20654;-68
2022/09/19 13:02:09;;;;;;;0.40;0.40;;;14.90;99.90;;;;;;5052336;28;20765;-68
2022/09/19 13:04:46;;;;;;;0.40;0.40;;;14.70;99.90;;;;;;5054327;28;20523;-68
2022/09/19 13:07:31;;;;;;;0.40;0.40;;;14.60;99.90;;;;;;5055927;28;20939;-68
2022/09/19 13:10:15;;;;;;;0.40;0.40;;;13.90;99.90;;;;;;5055228;28;21055;-68
2022/09/19 13:12:50;;;;;;;0.40;0.40;;;14.00;99.90;;;;;;5055670;28;21049;-68
2022/09/19 13:15:25;;;;;;;0.40;0.40;;;13.50;99.90;;;;;;5055185;28;20944;-68
2022/09/19 13:23:32;;;;;;;0.90;0.70;;;12.20;99.90;;;;;;5054905;28;20817;-69
2022/09/19 13:26:27;;;;;;;0.60;0.60;;;11.70;99.90;;;;;;5055793;28;20954;-68
2022/09/19 13:28:56;;;;;;;0.40;0.40;;;11.60;99.90;;;;;;5055357;28;20998;-69
2022/09/19 13:31:31;;;;;;;3.33;0.60;;;11.20;99.90;;;;;;5055105;28;20924;-69
2022/09/19 13:33:59;;;;;;;0.40;0.40;;;11.00;99.90;;;;;;5052710;28;20475;-68
2022/09/19 13:36:43;;;;;;;0.40;0.40;;;11.00;99.90;;;;;;5055169;28;20967;-69
2022/09/19 13:39:45;;;;;;;0.40;0.40;;;11.00;99.90;;;;;;5048941;28;20456;-68
2022/09/19 13:42:24;;;;;;;0.40;0.40;;;11.00;99.90;;;;;;5062178;28;20891;-68
2022/09/19 13:45:01;;;;;;;0.40;0.40;;;11.00;99.90;;;;;;5061275;28;20424;-69
2022/09/19 13:47:32;;;;;;;0.40;0.40;;;11.10;99.90;;;;;;5058391;28;20783;-69
2022/09/19 13:50:07;;;;;;;0.40;0.40;;;9.80;99.90;;;;;;5055861;28;20459;-69
2022/09/19 13:52:41;;;;;;;0.40;0.40;;;11.20;99.90;;;;;;5055672;28;20511;-68
2022/09/19 13:55:29;;;;;;;0.40;0.40;;;11.20;99.90;;;;;;5055281;28;20431;-69
2022/09/19 13:58:16;;;;;;;0.40;0.40;;;11.10;99.90;;;;;;5056091;28;20863;-70
2022/09/19 14:00:46;;;;;;;0.40;0.40;;;11.20;99.90;;;;;;5054787;28;20632;-68
2022/09/19 14:03:27;;;;;;;0.40;0.40;;;11.40;99.90;;;;;;5056077;28;20834;-69
2022/09/19 14:06:20;;;;;;;0.40;0.40;;;11.60;99.90;;;;;;5055445;28;20857;-69
2022/09/19 14:09:18;;;;;;;0.40;0.40;;;11.50;99.90;;;;;;5055504;28;20970;-69
2022/09/19 14:12:43;;;;;;;0.40;0.40;;;11.50;99.90;;;;;;5054713;28;20804;-69
2022/09/19 14:15:31;;;;;;;0.40;0.40;;;11.60;99.90;;;;;;5055259;28;20454;-69
2022/09/19 14:18:20;;;;;;;0.40;0.40;;;11.20;99.90;;;;;;5054964;28;20440;-69
2022/09/19 14:20:54;;;;;;;0.40;0.40;;;11.20;99.90;;;;;;5054580;28;20854;-69
2022/09/19 14:23:24;;;;;;;1.70;0.67;;;11.00;99.90;;;;;;5053981;28;20485;-68
2022/09/19 14:25:59;;;;;;;1.00;0.90;;;9.70;99.90;;;;;;5054497;28;20845;-68
2022/09/19 14:28:41;;;;;;;0.40;0.40;;;10.70;99.90;;;;;;5059879;28;20467;-68
2022/09/19 14:31:50;;;;;;;0.40;0.40;;;10.70;99.90;;;;;;5055136;28;20765;-68
2022/09/19 14:34:37;;;;;;;0.40;0.40;;;10.60;99.90;;;;;;4974132;28;20456;-68
2022/09/19 14:37:43;;;;;;;0.50;0.50;;;10.60;99.90;;;;;;5053768;28;20444;-68
2022/09/19 14:40:36;;;;;;;0.40;0.40;;;10.60;99.90;;;;;;5054928;28;20870;-68
2022/09/19 14:43:38;;;;;;;0.40;0.40;;;10.60;99.90;;;;;;5052813;28;20908;-68